Impacts TAF Board
For situational awareness. Not to be used for flight planning purposes.
IDs:

KTCS - Truth or Consequence, NM, US

Issued at 1720 UTC 01 Feb 2023
Updated at 2320 UTC 01 Feb 2023
Potential Impact None Slight Moderate High
Time2253Z 02/00Z 02/01Z 02/02Z 02/03Z 02/04Z 02/05Z 02/06Z 02/07Z 02/08Z 02/09Z 02/10Z 02/11Z 02/12Z>>
Type OBS PRVL PRVL PRVL PRVL PRVL PRVL PRVL PRVL PRVL PRVL PRVL PRVL PRVL
VIS 10 >6 >6 >6 >6 >6 >6 >6 >6 >6 >6 >6 >6 >6
CIG -- -- -- -- -- -- -- -- -- -- -- -- -- --
Cover CLR FEW SCT SCT SCT SCT SCT SCT SCT SCT SCT SCT SCT SCT
FltCat VFR VFR VFR VFR VFR VFR VFR VFR VFR VFR VFR VFR VFR VFR
WX -- -- -- -- -- -- -- -- -- -- -- -- -- --
WDir VRB 40 340 340 340 340 340 340 340 340 340 340 340 340
WSpd 0 8 10 10 10 10 10 10 10 10 10 10 10 10
WGst -- -- -- -- -- -- -- -- -- -- -- -- -- --
WSHgt -- -- -- -- -- -- -- -- -- -- -- -- -- --
WSDir -- -- -- -- -- -- -- -- -- -- -- -- -- --
WSSpd -- -- -- -- -- -- -- -- -- -- -- -- -- --
R01/19
XWnd VRB -3 7 7 7 7 7 7 7 7 7 7 7 7
HWnd VRB 8 8 8 8 8 8 8 8 8 8 8 8 8
R07/25
XWnd VRB 5 10 10 10 10 10 10 10 10 10 10 10 10
HWnd VRB 6 -2 -2 -2 -2 -2 -2 -2 -2 -2 -2 -2 -2
R11/29
XWnd VRB 8 6 6 6 6 6 6 6 6 6 6 6 6
HWnd VRB 1 -8 -8 -8 -8 -8 -8 -8 -8 -8 -8 -8 -8
R13/31
XWnd VRB 8 3 3 3 3 3 3 3 3 3 3 3 3
HWnd VRB -2 -10 -10 -10 -10 -10 -10 -10 -10 -10 -10 -10 -10
R15/33
XWnd VRB 6 -1 -1 -1 -1 -1 -1 -1 -1 -1 -1 -1 -1
HWnd VRB -5 -10 -10 -10 -10 -10 -10 -10 -10 -10 -10 -10 -10

NOTE: LAMP data beyond the time of the TAF data is denoted as LAMP in Type and colored magenta.

Raw TAF
KTCS 011720Z 0118/0218 04008KT P6SM FEW080
  FM020100 34010KT P6SM SCT070


Raw METAR
KTCS 012253Z AUTO 00000KT 10SM CLR 14/M09 A3002 RMK AO2 SLP139 T01391094
KTCS 012153Z AUTO 03008KT 10SM CLR 13/M09 A3002 RMK AO2 SLP135 T01331094
KTCS 012053Z AUTO 03008KT 10SM CLR 13/M09 A3003 RMK AO2 SLP140 T01281089 56031

METAR Board
Radar Display
Forecast Discussion

For situational awareness. Not to be used for flight planning purposes.